Hauptseite
METAR-TAF:

METAR-TAF

Flughäfen :

Altenburg, Deutschland

Leipzig-Altenburg Airport

Breite: 50-58N, Länge: 012-30E, Höhe: 195 m

Beobachtung

Neuester Wetterbericht von vor 6 Stunden und 0 Minuten, um 17:50 UTC
Wind 2 kt aus Nordost
Temperatur 21°C
Luftfeuchtigkeit 73%
Luftdruck 1021 hPa
Sichtweite 10 km oder mehr
keine Wolken unter 1500 m und keine Kumulonimbus oder Gewitterwolken

METAR: EDAC 161750Z 05002KT CAVOK 21/16 Q1021

Zeit: 01:50 (23:50 UTC)

Prognose

Neuester Wetterbericht von vor 6 Stunden und 50 Minuten, um 17:00 UTC
Gültige Prognose vom 16 um 18 UTC bis 17 um 03 UTC
Wind 5 kt aus Nordost
Sichtweite 10 km oder mehr
keine Wolken unter 1500 m und keine Kumulonimbus oder Gewitterwolken
Übergehend zu
vom 16 um 19 UTC bis 16 um 23 UTC
Wind 5 kt aus Südost

TAF: EDAC 161700Z 1618/1703 05005KT CAVOK BECMG 1619/1623 13005KT

Wetterbeobachtungen und Prognosen von mehr als 4000 Flughäfen (METAR und TAF Bericht).

Die verfügbaren Stationen werden durch gelbe und rote Markierungen auf der Karte dargestellt.

Führen Sie die Maus auf sie, um den Namen der Station zu sehen.

Darauf klicken, um die Beobachtung von Wetterbeobachtungen und Prognosen zu sehen.

Um die Karte zu ändern : klicken Sie auf den grünen Tasten mit einem schwarzen Kreuz Zum Vergrößern, auf den grünen Button mit einem Gedankenstrich zu verkleinern, oder auf die grünen Pfeile für benachbarte Karten.


METAR-TAF: